sensor_id;sensor_type;location;lat;lon;timestamp;P1;durP1;ratioP1;P2;durP2;ratioP2
23101;SDS011;11720;51.214;22.574;2022-07-29T00:00:12;4.45;;;2.30;;
23101;SDS011;11720;51.214;22.574;2022-07-29T00:02:38;3.60;;;1.88;;
23101;SDS011;11720;51.214;22.574;2022-07-29T00:05:04;4.05;;;1.88;;
23101;SDS011;11720;51.214;22.574;2022-07-29T00:07:30;3.33;;;2.30;;
23101;SDS011;11720;51.214;22.574;2022-07-29T00:09:56;2.05;;;1.58;;
23101;SDS011;11720;51.214;22.574;2022-07-29T00:12:22;4.40;;;2.22;;
23101;SDS011;11720;51.214;22.574;2022-07-29T00:14:49;4.43;;;2.70;;
23101;SDS011;11720;51.214;22.574;2022-07-29T00:17:15;2.88;;;2.10;;
23101;SDS011;11720;51.214;22.574;2022-07-29T00:19:40;5.60;;;2.38;;
23101;SDS011;11720;51.214;22.574;2022-07-29T00:22:06;5.75;;;2.03;;
23101;SDS011;11720;51.214;22.574;2022-07-29T00:24:32;4.90;;;1.98;;
23101;SDS011;11720;51.214;22.574;2022-07-29T00:26:57;3.42;;;2.28;;
23101;SDS011;11720;51.214;22.574;2022-07-29T00:29:23;2.08;;;1.67;;
23101;SDS011;11720;51.214;22.574;2022-07-29T00:31:49;2.63;;;2.30;;
23101;SDS011;11720;51.214;22.574;2022-07-29T00:34:15;3.40;;;2.03;;
23101;SDS011;11720;51.214;22.574;2022-07-29T00:36:59;4.75;;;2.60;;
23101;SDS011;11720;51.214;22.574;2022-07-29T00:39:24;7.97;;;2.70;;
23101;SDS011;11720;51.214;22.574;2022-07-29T00:41:50;2.85;;;1.70;;
23101;SDS011;11720;51.214;22.574;2022-07-29T00:44:16;3.95;;;2.67;;
23101;SDS011;11720;51.214;22.574;2022-07-29T00:46:42;4.22;;;2.10;;
23101;SDS011;11720;51.214;22.574;2022-07-29T00:49:07;4.65;;;2.03;;
23101;SDS011;11720;51.214;22.574;2022-07-29T00:51:37;3.90;;;2.50;;
23101;SDS011;11720;51.214;22.574;2022-07-29T00:54:03;4.40;;;2.22;;
23101;SDS011;11720;51.214;22.574;2022-07-29T00:56:30;5.40;;;2.03;;
23101;SDS011;11720;51.214;22.574;2022-07-29T00:58:57;1.75;;;1.50;;
23101;SDS011;11720;51.214;22.574;2022-07-29T01:01:23;1.75;;;1.25;;
23101;SDS011;11720;51.214;22.574;2022-07-29T01:03:49;2.42;;;1.65;;
23101;SDS011;11720;51.214;22.574;2022-07-29T01:06:15;2.20;;;1.77;;
23101;SDS011;11720;51.214;22.574;2022-07-29T01:08:43;3.30;;;2.38;;
23101;SDS011;11720;51.214;22.574;2022-07-29T01:11:10;3.38;;;1.50;;
23101;SDS011;11720;51.214;22.574;2022-07-29T01:13:36;1.95;;;1.73;;
23101;SDS011;11720;51.214;22.574;2022-07-29T01:16:15;2.85;;;2.08;;
23101;SDS011;11720;51.214;22.574;2022-07-29T01:18:46;3.15;;;2.00;;
23101;SDS011;11720;51.214;22.574;2022-07-29T01:27:16;5.35;;;2.33;;
23101;SDS011;11720;51.214;22.574;2022-07-29T01:29:55;2.75;;;1.83;;
23101;SDS011;11720;51.214;22.574;2022-07-29T01:32:24;1.83;;;1.63;;
23101;SDS011;11720;51.214;22.574;2022-07-29T01:35:03;2.75;;;2.05;;
23101;SDS011;11720;51.214;22.574;2022-07-29T01:40:09;3.85;;;2.10;;
23101;SDS011;11720;51.214;22.574;2022-07-29T01:42:43;2.63;;;1.95;;
23101;SDS011;11720;51.214;22.574;2022-07-29T01:48:02;3.10;;;2.13;;
23101;SDS011;11720;51.214;22.574;2022-07-29T01:50:34;6.07;;;2.17;;
23101;SDS011;11720;51.214;22.574;2022-07-29T01:53:08;2.67;;;1.92;;
23101;SDS011;11720;51.214;22.574;2022-07-29T01:55:36;3.88;;;2.22;;
23101;SDS011;11720;51.214;22.574;2022-07-29T01:58:05;4.25;;;2.00;;
23101;SDS011;11720;51.214;22.574;2022-07-29T02:00:33;2.47;;;1.67;;
23101;SDS011;11720;51.214;22.574;2022-07-29T02:03:04;5.70;;;2.25;;
23101;SDS011;11720;51.214;22.574;2022-07-29T02:05:33;4.05;;;2.28;;
23101;SDS011;11720;51.214;22.574;2022-07-29T02:08:00;3.65;;;2.22;;
23101;SDS011;11720;51.214;22.574;2022-07-29T02:10:27;4.45;;;2.67;;
23101;SDS011;11720;51.214;22.574;2022-07-29T02:12:55;4.68;;;2.60;;
23101;SDS011;11720;51.214;22.574;2022-07-29T02:15:24;4.45;;;2.42;;
23101;SDS011;11720;51.214;22.574;2022-07-29T02:17:56;2.85;;;2.08;;
23101;SDS011;11720;51.214;22.574;2022-07-29T02:20:26;3.05;;;1.90;;
23101;SDS011;11720;51.214;22.574;2022-07-29T02:22:54;1.85;;;1.67;;
23101;SDS011;11720;51.214;22.574;2022-07-29T02:25:21;4.68;;;2.08;;
23101;SDS011;11720;51.214;22.574;2022-07-29T02:27:49;3.63;;;1.83;;
23101;SDS011;11720;51.214;22.574;2022-07-29T02:30:16;3.50;;;2.42;;
23101;SDS011;11720;51.214;22.574;2022-07-29T02:32:43;2.13;;;1.92;;
23101;SDS011;11720;51.214;22.574;2022-07-29T02:35:12;2.55;;;2.15;;
23101;SDS011;11720;51.214;22.574;2022-07-29T02:37:39;1.63;;;1.52;;
23101;SDS011;11720;51.214;22.574;2022-07-29T02:40:08;2.80;;;2.00;;
23101;SDS011;11720;51.214;22.574;2022-07-29T02:42:36;2.10;;;1.88;;
23101;SDS011;11720;51.214;22.574;2022-07-29T02:45:04;2.22;;;1.75;;
23101;SDS011;11720;51.214;22.574;2022-07-29T02:47:34;2.45;;;2.10;;
23101;SDS011;11720;51.214;22.574;2022-07-29T02:50:11;4.72;;;2.30;;
23101;SDS011;11720;51.214;22.574;2022-07-29T02:58:21;3.97;;;2.45;;
23101;SDS011;11720;51.214;22.574;2022-07-29T03:00:53;2.85;;;2.53;;
23101;SDS011;11720;51.214;22.574;2022-07-29T03:03:21;2.63;;;1.85;;
23101;SDS011;11720;51.214;22.574;2022-07-29T03:05:52;4.38;;;1.85;;
23101;SDS011;11720;51.214;22.574;2022-07-29T03:08:23;4.07;;;2.03;;
23101;SDS011;11720;51.214;22.574;2022-07-29T03:10:49;1.52;;;1.40;;
23101;SDS011;11720;51.214;22.574;2022-07-29T03:13:17;2.17;;;1.80;;
23101;SDS011;11720;51.214;22.574;2022-07-29T03:15:44;4.28;;;2.30;;
23101;SDS011;11720;51.214;22.574;2022-07-29T03:18:10;3.58;;;2.03;;
23101;SDS011;11720;51.214;22.574;2022-07-29T03:20:37;1.80;;;1.70;;
23101;SDS011;11720;51.214;22.574;2022-07-29T03:23:03;3.78;;;1.95;;
23101;SDS011;11720;51.214;22.574;2022-07-29T03:25:29;2.88;;;2.20;;
23101;SDS011;11720;51.214;22.574;2022-07-29T03:27:55;5.65;;;2.60;;
23101;SDS011;11720;51.214;22.574;2022-07-29T03:30:21;4.03;;;1.98;;
23101;SDS011;11720;51.214;22.574;2022-07-29T03:32:47;5.45;;;1.67;;
23101;SDS011;11720;51.214;22.574;2022-07-29T03:35:14;4.75;;;2.15;;
23101;SDS011;11720;51.214;22.574;2022-07-29T03:37:41;3.78;;;2.30;;
23101;SDS011;11720;51.214;22.574;2022-07-29T03:40:08;2.70;;;2.15;;
23101;SDS011;11720;51.214;22.574;2022-07-29T03:42:36;4.25;;;2.50;;
23101;SDS011;11720;51.214;22.574;2022-07-29T03:45:08;2.08;;;1.65;;
23101;SDS011;11720;51.214;22.574;2022-07-29T03:47:38;4.78;;;2.13;;
23101;SDS011;11720;51.214;22.574;2022-07-29T03:50:08;3.20;;;2.25;;
23101;SDS011;11720;51.214;22.574;2022-07-29T03:52:36;4.00;;;2.08;;
23101;SDS011;11720;51.214;22.574;2022-07-29T03:55:02;2.78;;;1.88;;
23101;SDS011;11720;51.214;22.574;2022-07-29T03:57:29;4.60;;;2.28;;
23101;SDS011;11720;51.214;22.574;2022-07-29T03:59:56;2.05;;;1.60;;
23101;SDS011;11720;51.214;22.574;2022-07-29T04:02:22;2.22;;;2.03;;
23101;SDS011;11720;51.214;22.574;2022-07-29T04:04:50;2.60;;;1.75;;
23101;SDS011;11720;51.214;22.574;2022-07-29T04:07:16;4.22;;;2.13;;
23101;SDS011;11720;51.214;22.574;2022-07-29T04:09:42;2.50;;;2.00;;
23101;SDS011;11720;51.214;22.574;2022-07-29T04:12:08;2.67;;;2.30;;
23101;SDS011;11720;51.214;22.574;2022-07-29T04:14:34;3.47;;;2.38;;
23101;SDS011;11720;51.214;22.574;2022-07-29T04:17:00;2.78;;;2.25;;
23101;SDS011;11720;51.214;22.574;2022-07-29T04:19:27;2.20;;;1.60;;
23101;SDS011;11720;51.214;22.574;2022-07-29T04:21:52;2.08;;;1.60;;
23101;SDS011;11720;51.214;22.574;2022-07-29T04:24:18;2.30;;;1.88;;
23101;SDS011;11720;51.214;22.574;2022-07-29T04:26:45;1.77;;;1.45;;
23101;SDS011;11720;51.214;22.574;2022-07-29T04:29:11;3.65;;;2.05;;
23101;SDS011;11720;51.214;22.574;2022-07-29T04:31:39;3.30;;;2.05;;
23101;SDS011;11720;51.214;22.574;2022-07-29T04:34:05;2.10;;;1.65;;
23101;SDS011;11720;51.214;22.574;2022-07-29T04:36:31;1.95;;;1.60;;
23101;SDS011;11720;51.214;22.574;2022-07-29T04:38:57;4.07;;;1.90;;
23101;SDS011;11720;51.214;22.574;2022-07-29T04:41:23;4.13;;;2.28;;
23101;SDS011;11720;51.214;22.574;2022-07-29T04:43:49;2.95;;;1.92;;
23101;SDS011;11720;51.214;22.574;2022-07-29T04:46:14;3.78;;;1.88;;
23101;SDS011;11720;51.214;22.574;2022-07-29T04:48:40;4.32;;;1.80;;
23101;SDS011;11720;51.214;22.574;2022-07-29T04:51:06;2.25;;;1.38;;
23101;SDS011;11720;51.214;22.574;2022-07-29T04:53:32;2.60;;;1.67;;
23101;SDS011;11720;51.214;22.574;2022-07-29T04:55:57;4.78;;;1.95;;
23101;SDS011;11720;51.214;22.574;2022-07-29T04:58:23;3.33;;;1.67;;
23101;SDS011;11720;51.214;22.574;2022-07-29T05:00:49;4.60;;;1.90;;
23101;SDS011;11720;51.214;22.574;2022-07-29T05:03:15;1.58;;;1.48;;
23101;SDS011;11720;51.214;22.574;2022-07-29T05:05:41;1.98;;;1.55;;
23101;SDS011;11720;51.214;22.574;2022-07-29T05:08:07;2.28;;;1.70;;
23101;SDS011;11720;51.214;22.574;2022-07-29T05:10:33;1.80;;;1.70;;
23101;SDS011;11720;51.214;22.574;2022-07-29T05:13:03;2.78;;;1.23;;
23101;SDS011;11720;51.214;22.574;2022-07-29T05:15:31;3.42;;;1.50;;
23101;SDS011;11720;51.214;22.574;2022-07-29T05:18:01;2.25;;;1.20;;
23101;SDS011;11720;51.214;22.574;2022-07-29T05:20:27;1.90;;;1.48;;
23101;SDS011;11720;51.214;22.574;2022-07-29T05:22:58;1.13;;;1.02;;
23101;SDS011;11720;51.214;22.574;2022-07-29T05:25:24;1.50;;;1.13;;
23101;SDS011;11720;51.214;22.574;2022-07-29T05:27:51;1.65;;;1.20;;
23101;SDS011;11720;51.214;22.574;2022-07-29T05:30:17;0.80;;;0.80;;
23101;SDS011;11720;51.214;22.574;2022-07-29T05:32:42;1.13;;;1.02;;
23101;SDS011;11720;51.214;22.574;2022-07-29T05:35:08;1.27;;;1.05;;
23101;SDS011;11720;51.214;22.574;2022-07-29T05:37:34;2.40;;;1.65;;
23101;SDS011;11720;51.214;22.574;2022-07-29T05:40:01;1.48;;;1.20;;
23101;SDS011;11720;51.214;22.574;2022-07-29T05:42:27;1.17;;;0.85;;
23101;SDS011;11720;51.214;22.574;2022-07-29T05:44:54;2.30;;;1.00;;
23101;SDS011;11720;51.214;22.574;2022-07-29T05:47:20;1.58;;;1.00;;
23101;SDS011;11720;51.214;22.574;2022-07-29T05:49:46;4.57;;;2.28;;
23101;SDS011;11720;51.214;22.574;2022-07-29T05:52:11;1.05;;;0.93;;
23101;SDS011;11720;51.214;22.574;2022-07-29T05:54:38;1.08;;;0.95;;
23101;SDS011;11720;51.214;22.574;2022-07-29T05:57:04;2.05;;;1.02;;
23101;SDS011;11720;51.214;22.574;2022-07-29T05:59:30;2.08;;;1.00;;
23101;SDS011;11720;51.214;22.574;2022-07-29T06:01:59;1.35;;;1.10;;
23101;SDS011;11720;51.214;22.574;2022-07-29T06:04:25;1.27;;;1.00;;
23101;SDS011;11720;51.214;22.574;2022-07-29T06:06:51;5.15;;;1.52;;
23101;SDS011;11720;51.214;22.574;2022-07-29T06:09:16;1.88;;;1.00;;
23101;SDS011;11720;51.214;22.574;2022-07-29T06:11:42;1.60;;;1.38;;
23101;SDS011;11720;51.214;22.574;2022-07-29T06:14:07;1.20;;;1.10;;
23101;SDS011;11720;51.214;22.574;2022-07-29T06:16:33;1.77;;;1.30;;
23101;SDS011;11720;51.214;22.574;2022-07-29T06:18:59;2.75;;;1.10;;
23101;SDS011;11720;51.214;22.574;2022-07-29T06:21:24;0.98;;;0.88;;
23101;SDS011;11720;51.214;22.574;2022-07-29T06:23:50;1.98;;;0.88;;
23101;SDS011;11720;51.214;22.574;2022-07-29T06:26:16;3.58;;;1.80;;
23101;SDS011;11720;51.214;22.574;2022-07-29T06:28:41;3.35;;;2.05;;
23101;SDS011;11720;51.214;22.574;2022-07-29T06:31:07;3.00;;;1.48;;
23101;SDS011;11720;51.214;22.574;2022-07-29T06:33:33;0.93;;;0.80;;
23101;SDS011;11720;51.214;22.574;2022-07-29T06:35:58;0.70;;;0.70;;
23101;SDS011;11720;51.214;22.574;2022-07-29T06:38:24;1.33;;;1.05;;
23101;SDS011;11720;51.214;22.574;2022-07-29T06:40:50;0.70;;;0.70;;
23101;SDS011;11720;51.214;22.574;2022-07-29T06:43:36;0.75;;;0.70;;
23101;SDS011;11720;51.214;22.574;2022-07-29T06:46:06;1.20;;;0.82;;
23101;SDS011;11720;51.214;22.574;2022-07-29T06:48:38;0.57;;;0.57;;
23101;SDS011;11720;51.214;22.574;2022-07-29T06:51:05;0.70;;;0.70;;
23101;SDS011;11720;51.214;22.574;2022-07-29T06:53:31;0.77;;;0.70;;
23101;SDS011;11720;51.214;22.574;2022-07-29T06:55:58;0.60;;;0.60;;
23101;SDS011;11720;51.214;22.574;2022-07-29T06:58:25;1.17;;;0.77;;
23101;SDS011;11720;51.214;22.574;2022-07-29T07:00:51;3.97;;;1.13;;
23101;SDS011;11720;51.214;22.574;2022-07-29T07:03:18;1.60;;;0.63;;
23101;SDS011;11720;51.214;22.574;2022-07-29T07:05:44;0.93;;;0.70;;
23101;SDS011;11720;51.214;22.574;2022-07-29T07:08:10;0.90;;;0.70;;
23101;SDS011;11720;51.214;22.574;2022-07-29T07:10:37;1.35;;;1.05;;
23101;SDS011;11720;51.214;22.574;2022-07-29T07:13:03;0.90;;;0.90;;
23101;SDS011;11720;51.214;22.574;2022-07-29T07:15:29;1.10;;;0.80;;
23101;SDS011;11720;51.214;22.574;2022-07-29T07:17:55;0.80;;;0.70;;
23101;SDS011;11720;51.214;22.574;2022-07-29T07:20:22;2.55;;;1.00;;
23101;SDS011;11720;51.214;22.574;2022-07-29T07:22:48;1.30;;;0.90;;
23101;SDS011;11720;51.214;22.574;2022-07-29T07:25:14;0.60;;;0.60;;
23101;SDS011;11720;51.214;22.574;2022-07-29T07:27:40;0.70;;;0.60;;
23101;SDS011;11720;51.214;22.574;2022-07-29T07:30:05;1.10;;;0.82;;
23101;SDS011;11720;51.214;22.574;2022-07-29T07:32:32;0.50;;;0.50;;
23101;SDS011;11720;51.214;22.574;2022-07-29T07:34:59;1.88;;;0.93;;
23101;SDS011;11720;51.214;22.574;2022-07-29T07:37:25;1.40;;;0.70;;
23101;SDS011;11720;51.214;22.574;2022-07-29T07:39:51;0.70;;;0.70;;
23101;SDS011;11720;51.214;22.574;2022-07-29T07:42:18;0.43;;;0.30;;
23101;SDS011;11720;51.214;22.574;2022-07-29T07:44:44;0.98;;;0.73;;
23101;SDS011;11720;51.214;22.574;2022-07-29T07:47:13;1.48;;;0.60;;
23101;SDS011;11720;51.214;22.574;2022-07-29T07:49:39;0.52;;;0.40;;
23101;SDS011;11720;51.214;22.574;2022-07-29T07:52:05;2.97;;;0.65;;
23101;SDS011;11720;51.214;22.574;2022-07-29T07:54:31;0.95;;;0.90;;
23101;SDS011;11720;51.214;22.574;2022-07-29T07:56:57;0.68;;;0.50;;
23101;SDS011;11720;51.214;22.574;2022-07-29T07:59:22;1.40;;;0.40;;
23101;SDS011;11720;51.214;22.574;2022-07-29T08:01:48;1.83;;;0.43;;
23101;SDS011;11720;51.214;22.574;2022-07-29T08:04:14;3.75;;;2.20;;
23101;SDS011;11720;51.214;22.574;2022-07-29T08:06:40;0.55;;;0.50;;
23101;SDS011;11720;51.214;22.574;2022-07-29T08:09:06;1.10;;;1.00;;
23101;SDS011;11720;51.214;22.574;2022-07-29T08:11:32;0.50;;;0.50;;
23101;SDS011;11720;51.214;22.574;2022-07-29T08:13:57;0.63;;;0.50;;
23101;SDS011;11720;51.214;22.574;2022-07-29T08:16:23;0.50;;;0.50;;
23101;SDS011;11720;51.214;22.574;2022-07-29T08:18:50;0.55;;;0.43;;
23101;SDS011;11720;51.214;22.574;2022-07-29T08:21:16;1.17;;;0.40;;
23101;SDS011;11720;51.214;22.574;2022-07-29T08:23:45;2.00;;;0.93;;
23101;SDS011;11720;51.214;22.574;2022-07-29T08:26:14;0.40;;;0.40;;
23101;SDS011;11720;51.214;22.574;2022-07-29T08:28:41;0.30;;;0.30;;
23101;SDS011;11720;51.214;22.574;2022-07-29T08:31:11;0.30;;;0.30;;
23101;SDS011;11720;51.214;22.574;2022-07-29T08:33:37;3.00;;;0.90;;
23101;SDS011;11720;51.214;22.574;2022-07-29T08:36:04;0.93;;;0.50;;
23101;SDS011;11720;51.214;22.574;2022-07-29T08:38:31;1.13;;;0.60;;
23101;SDS011;11720;51.214;22.574;2022-07-29T08:40:57;0.75;;;0.75;;
23101;SDS011;11720;51.214;22.574;2022-07-29T08:43:24;0.47;;;0.38;;
23101;SDS011;11720;51.214;22.574;2022-07-29T08:45:50;0.47;;;0.47;;
23101;SDS011;11720;51.214;22.574;2022-07-29T08:48:21;0.60;;;0.60;;
23101;SDS011;11720;51.214;22.574;2022-07-29T08:50:48;1.05;;;0.60;;
23101;SDS011;11720;51.214;22.574;2022-07-29T08:53:19;0.90;;;0.60;;
23101;SDS011;11720;51.214;22.574;2022-07-29T08:55:47;0.57;;;0.40;;
23101;SDS011;11720;51.214;22.574;2022-07-29T08:58:14;0.88;;;0.70;;
23101;SDS011;11720;51.214;22.574;2022-07-29T09:00:41;1.98;;;0.60;;
23101;SDS011;11720;51.214;22.574;2022-07-29T09:03:09;0.60;;;0.45;;
23101;SDS011;11720;51.214;22.574;2022-07-29T09:05:41;1.27;;;0.80;;
23101;SDS011;11720;51.214;22.574;2022-07-29T09:08:07;1.13;;;0.55;;
23101;SDS011;11720;51.214;22.574;2022-07-29T09:10:34;0.60;;;0.57;;
23101;SDS011;11720;51.214;22.574;2022-07-29T09:13:01;0.40;;;0.40;;
23101;SDS011;11720;51.214;22.574;2022-07-29T09:15:26;0.80;;;0.55;;
23101;SDS011;11720;51.214;22.574;2022-07-29T09:17:52;1.17;;;0.82;;
23101;SDS011;11720;51.214;22.574;2022-07-29T09:20:19;0.50;;;0.40;;
23101;SDS011;11720;51.214;22.574;2022-07-29T09:22:47;0.55;;;0.55;;
23101;SDS011;11720;51.214;22.574;2022-07-29T09:25:14;0.75;;;0.50;;
23101;SDS011;11720;51.214;22.574;2022-07-29T09:28:04;0.40;;;0.40;;
23101;SDS011;11720;51.214;22.574;2022-07-29T09:30:31;0.52;;;0.50;;
23101;SDS011;11720;51.214;22.574;2022-07-29T09:32:58;1.52;;;0.55;;
23101;SDS011;11720;51.214;22.574;2022-07-29T09:35:26;0.30;;;0.30;;
23101;SDS011;11720;51.214;22.574;2022-07-29T09:37:52;0.63;;;0.63;;
23101;SDS011;11720;51.214;22.574;2022-07-29T09:40:20;0.85;;;0.75;;
23101;SDS011;11720;51.214;22.574;2022-07-29T09:42:50;0.40;;;0.40;;
23101;SDS011;11720;51.214;22.574;2022-07-29T09:45:28;0.40;;;0.40;;
23101;SDS011;11720;51.214;22.574;2022-07-29T09:47:58;0.35;;;0.35;;
23101;SDS011;11720;51.214;22.574;2022-07-29T09:50:40;1.02;;;0.50;;
23101;SDS011;11720;51.214;22.574;2022-07-29T09:53:07;0.80;;;0.70;;
23101;SDS011;11720;51.214;22.574;2022-07-29T09:55:45;1.52;;;0.80;;
23101;SDS011;11720;51.214;22.574;2022-07-29T09:58:18;0.63;;;0.63;;
23101;SDS011;11720;51.214;22.574;2022-07-29T10:00:45;0.77;;;0.60;;
23101;SDS011;11720;51.214;22.574;2022-07-29T10:03:12;0.50;;;0.50;;
23101;SDS011;11720;51.214;22.574;2022-07-29T10:05:42;1.60;;;0.52;;
23101;SDS011;11720;51.214;22.574;2022-07-29T10:08:12;0.30;;;0.30;;
23101;SDS011;11720;51.214;22.574;2022-07-29T10:10:39;0.30;;;0.30;;
23101;SDS011;11720;51.214;22.574;2022-07-29T10:13:13;2.13;;;1.00;;
23101;SDS011;11720;51.214;22.574;2022-07-29T10:15:40;0.70;;;0.47;;
23101;SDS011;11720;51.214;22.574;2022-07-29T10:18:09;0.47;;;0.47;;
23101;SDS011;11720;51.214;22.574;2022-07-29T10:20:36;0.52;;;0.50;;
23101;SDS011;11720;51.214;22.574;2022-07-29T10:23:03;0.80;;;0.57;;
23101;SDS011;11720;51.214;22.574;2022-07-29T10:25:29;1.25;;;0.75;;
23101;SDS011;11720;51.214;22.574;2022-07-29T10:27:55;2.33;;;0.82;;
23101;SDS011;11720;51.214;22.574;2022-07-29T10:30:22;0.98;;;0.50;;
23101;SDS011;11720;51.214;22.574;2022-07-29T10:41:43;0.38;;;0.38;;
23101;SDS011;11720;51.214;22.574;2022-07-29T10:44:20;0.50;;;0.50;;
23101;SDS011;11720;51.214;22.574;2022-07-29T10:46:47;0.60;;;0.60;;
23101;SDS011;11720;51.214;22.574;2022-07-29T10:49:15;0.40;;;0.40;;
23101;SDS011;11720;51.214;22.574;2022-07-29T10:54:17;0.68;;;0.40;;
23101;SDS011;11720;51.214;22.574;2022-07-29T10:56:43;1.50;;;0.40;;
23101;SDS011;11720;51.214;22.574;2022-07-29T11:01:50;0.45;;;0.40;;
23101;SDS011;11720;51.214;22.574;2022-07-29T11:04:40;0.40;;;0.40;;
23101;SDS011;11720;51.214;22.574;2022-07-29T11:07:11;0.68;;;0.60;;
23101;SDS011;11720;51.214;22.574;2022-07-29T11:09:37;0.85;;;0.65;;
23101;SDS011;11720;51.214;22.574;2022-07-29T11:12:03;0.40;;;0.40;;
23101;SDS011;11720;51.214;22.574;2022-07-29T11:14:58;0.65;;;0.50;;
23101;SDS011;11720;51.214;22.574;2022-07-29T11:17:26;2.15;;;0.80;;
23101;SDS011;11720;51.214;22.574;2022-07-29T11:20:29;0.50;;;0.50;;
23101;SDS011;11720;51.214;22.574;2022-07-29T11:22:56;0.70;;;0.60;;
23101;SDS011;11720;51.214;22.574;2022-07-29T11:25:23;0.70;;;0.60;;
23101;SDS011;11720;51.214;22.574;2022-07-29T11:27:48;1.20;;;0.50;;
23101;SDS011;11720;51.214;22.574;2022-07-29T11:30:16;0.50;;;0.50;;
23101;SDS011;11720;51.214;22.574;2022-07-29T11:32:43;1.67;;;0.88;;
23101;SDS011;11720;51.214;22.574;2022-07-29T11:35:11;1.23;;;0.40;;
23101;SDS011;11720;51.214;22.574;2022-07-29T11:43:52;2.97;;;0.80;;
23101;SDS011;11720;51.214;22.574;2022-07-29T11:49:12;0.50;;;0.50;;
23101;SDS011;11720;51.214;22.574;2022-07-29T11:51:38;1.25;;;0.60;;
23101;SDS011;11720;51.214;22.574;2022-07-29T11:54:04;1.63;;;0.85;;
23101;SDS011;11720;51.214;22.574;2022-07-29T11:56:33;1.55;;;0.60;;
23101;SDS011;11720;51.214;22.574;2022-07-29T11:59:04;0.52;;;0.52;;
23101;SDS011;11720;51.214;22.574;2022-07-29T12:01:31;1.08;;;0.55;;
23101;SDS011;11720;51.214;22.574;2022-07-29T12:04:06;0.57;;;0.40;;
23101;SDS011;11720;51.214;22.574;2022-07-29T12:06:33;0.60;;;0.57;;
23101;SDS011;11720;51.214;22.574;2022-07-29T12:08:59;3.83;;;1.00;;
23101;SDS011;11720;51.214;22.574;2022-07-29T12:11:25;0.30;;;0.30;;
23101;SDS011;11720;51.214;22.574;2022-07-29T12:13:51;0.55;;;0.45;;
23101;SDS011;11720;51.214;22.574;2022-07-29T12:16:17;0.50;;;0.50;;
23101;SDS011;11720;51.214;22.574;2022-07-29T12:18:57;0.50;;;0.50;;
23101;SDS011;11720;51.214;22.574;2022-07-29T12:21:25;1.88;;;0.77;;
23101;SDS011;11720;51.214;22.574;2022-07-29T12:23:52;0.57;;;0.50;;
23101;SDS011;11720;51.214;22.574;2022-07-29T12:26:19;0.60;;;0.50;;
23101;SDS011;11720;51.214;22.574;2022-07-29T12:28:44;2.13;;;1.30;;
23101;SDS011;11720;51.214;22.574;2022-07-29T12:31:13;0.30;;;0.30;;
23101;SDS011;11720;51.214;22.574;2022-07-29T12:33:40;0.40;;;0.40;;
23101;SDS011;11720;51.214;22.574;2022-07-29T12:36:06;0.60;;;0.60;;
23101;SDS011;11720;51.214;22.574;2022-07-29T12:38:33;0.73;;;0.73;;
23101;SDS011;11720;51.214;22.574;2022-07-29T12:40:59;1.17;;;0.57;;
23101;SDS011;11720;51.214;22.574;2022-07-29T12:43:25;0.70;;;0.70;;
23101;SDS011;11720;51.214;22.574;2022-07-29T12:45:52;0.65;;;0.65;;
23101;SDS011;11720;51.214;22.574;2022-07-29T12:48:36;0.50;;;0.50;;
23101;SDS011;11720;51.214;22.574;2022-07-29T12:51:03;0.70;;;0.70;;
23101;SDS011;11720;51.214;22.574;2022-07-29T12:53:31;0.47;;;0.47;;
23101;SDS011;11720;51.214;22.574;2022-07-29T12:55:57;1.00;;;0.70;;
23101;SDS011;11720;51.214;22.574;2022-07-29T13:03:58;1.42;;;0.90;;
23101;SDS011;11720;51.214;22.574;2022-07-29T13:06:29;1.75;;;0.77;;
23101;SDS011;11720;51.214;22.574;2022-07-29T13:09:08;0.55;;;0.55;;
23101;SDS011;11720;51.214;22.574;2022-07-29T13:14:20;0.80;;;0.80;;
23101;SDS011;11720;51.214;22.574;2022-07-29T13:17:10;0.88;;;0.73;;
23101;SDS011;11720;51.214;22.574;2022-07-29T13:19:51;1.05;;;0.70;;
23101;SDS011;11720;51.214;22.574;2022-07-29T13:22:18;1.58;;;0.95;;
23101;SDS011;11720;51.214;22.574;2022-07-29T13:24:49;2.00;;;0.88;;
23101;SDS011;11720;51.214;22.574;2022-07-29T13:27:18;0.80;;;0.70;;
23101;SDS011;11720;51.214;22.574;2022-07-29T13:29:46;1.13;;;0.88;;
23101;SDS011;11720;51.214;22.574;2022-07-29T13:32:12;0.68;;;0.68;;
23101;SDS011;11720;51.214;22.574;2022-07-29T13:34:38;1.70;;;0.80;;
23101;SDS011;11720;51.214;22.574;2022-07-29T13:37:04;1.85;;;1.13;;
23101;SDS011;11720;51.214;22.574;2022-07-29T13:39:30;1.73;;;0.98;;
23101;SDS011;11720;51.214;22.574;2022-07-29T13:41:56;3.08;;;1.20;;
23101;SDS011;11720;51.214;22.574;2022-07-29T13:44:21;3.90;;;1.33;;
23101;SDS011;11720;51.214;22.574;2022-07-29T13:46:47;0.50;;;0.50;;
23101;SDS011;11720;51.214;22.574;2022-07-29T13:49:12;0.65;;;0.60;;
23101;SDS011;11720;51.214;22.574;2022-07-29T13:51:38;0.93;;;0.82;;
23101;SDS011;11720;51.214;22.574;2022-07-29T13:54:04;3.35;;;1.52;;
23101;SDS011;11720;51.214;22.574;2022-07-29T13:56:30;3.50;;;1.20;;
23101;SDS011;11720;51.214;22.574;2022-07-29T13:58:55;1.98;;;1.00;;
23101;SDS011;11720;51.214;22.574;2022-07-29T14:01:22;2.97;;;1.63;;
23101;SDS011;11720;51.214;22.574;2022-07-29T14:03:48;1.10;;;0.98;;
23101;SDS011;11720;51.214;22.574;2022-07-29T14:06:13;0.88;;;0.88;;
23101;SDS011;11720;51.214;22.574;2022-07-29T14:08:39;0.73;;;0.73;;
23101;SDS011;11720;51.214;22.574;2022-07-29T14:11:05;1.02;;;0.90;;
23101;SDS011;11720;51.214;22.574;2022-07-29T14:13:30;1.60;;;0.90;;
23101;SDS011;11720;51.214;22.574;2022-07-29T14:15:56;0.80;;;0.80;;
23101;SDS011;11720;51.214;22.574;2022-07-29T14:18:22;1.83;;;1.17;;
23101;SDS011;11720;51.214;22.574;2022-07-29T14:20:47;1.77;;;1.40;;
23101;SDS011;11720;51.214;22.574;2022-07-29T14:23:13;1.85;;;1.52;;
23101;SDS011;11720;51.214;22.574;2022-07-29T14:25:38;1.33;;;0.82;;
23101;SDS011;11720;51.214;22.574;2022-07-29T14:28:04;1.13;;;1.00;;
23101;SDS011;11720;51.214;22.574;2022-07-29T14:30:30;1.00;;;0.80;;
23101;SDS011;11720;51.214;22.574;2022-07-29T14:32:55;2.63;;;1.60;;
23101;SDS011;11720;51.214;22.574;2022-07-29T14:35:21;0.95;;;0.90;;
23101;SDS011;11720;51.214;22.574;2022-07-29T14:37:46;1.50;;;1.10;;
23101;SDS011;11720;51.214;22.574;2022-07-29T14:40:12;3.72;;;0.90;;
23101;SDS011;11720;51.214;22.574;2022-07-29T14:42:38;4.00;;;1.10;;
23101;SDS011;11720;51.214;22.574;2022-07-29T14:45:04;1.05;;;0.95;;
23101;SDS011;11720;51.214;22.574;2022-07-29T14:47:31;0.95;;;0.93;;
23101;SDS011;11720;51.214;22.574;2022-07-29T14:49:57;0.95;;;0.90;;
23101;SDS011;11720;51.214;22.574;2022-07-29T14:52:23;0.68;;;0.68;;
23101;SDS011;11720;51.214;22.574;2022-07-29T14:54:48;1.42;;;1.10;;
23101;SDS011;11720;51.214;22.574;2022-07-29T14:57:14;0.85;;;0.80;;
23101;SDS011;11720;51.214;22.574;2022-07-29T14:59:40;0.98;;;0.80;;
23101;SDS011;11720;51.214;22.574;2022-07-29T15:02:05;1.17;;;1.00;;
23101;SDS011;11720;51.214;22.574;2022-07-29T15:04:31;0.93;;;0.90;;
23101;SDS011;11720;51.214;22.574;2022-07-29T15:06:57;0.75;;;0.68;;
23101;SDS011;11720;51.214;22.574;2022-07-29T15:09:22;1.00;;;0.85;;
23101;SDS011;11720;51.214;22.574;2022-07-29T15:11:48;1.10;;;1.00;;
23101;SDS011;11720;51.214;22.574;2022-07-29T15:14:14;1.63;;;1.00;;
23101;SDS011;11720;51.214;22.574;2022-07-29T15:16:40;1.63;;;1.33;;
23101;SDS011;11720;51.214;22.574;2022-07-29T15:19:07;1.45;;;1.10;;
23101;SDS011;11720;51.214;22.574;2022-07-29T15:21:33;1.80;;;1.27;;
23101;SDS011;11720;51.214;22.574;2022-07-29T15:23:59;0.90;;;0.80;;